sensor_id;sensor_type;location;lat;lon;timestamp;P1;durP1;ratioP1;P2;durP2;ratioP2
75890;SDS011;64571;47.512;19.054;2024-03-23T00:54:42;24.33;;;13.27;;
75890;SDS011;64571;47.512;19.054;2024-03-23T00:57:44;22.00;;;12.07;;
75890;SDS011;64571;47.512;19.054;2024-03-23T01:00:45;23.55;;;11.80;;
75890;SDS011;64571;47.512;19.054;2024-03-23T01:03:47;24.00;;;12.37;;
75890;SDS011;64571;47.512;19.054;2024-03-23T01:06:48;24.70;;;12.50;;
75890;SDS011;64571;47.512;19.054;2024-03-23T01:09:50;24.35;;;12.70;;
75890;SDS011;64571;47.512;19.054;2024-03-23T01:12:53;23.23;;;11.77;;
75890;SDS011;64571;47.512;19.054;2024-03-23T01:15:55;23.38;;;11.85;;
75890;SDS011;64571;47.512;19.054;2024-03-23T01:18:58;24.42;;;11.90;;
75890;SDS011;64571;47.512;19.054;2024-03-23T01:21:59;25.15;;;11.98;;
75890;SDS011;64571;47.512;19.054;2024-03-23T01:25:01;23.87;;;12.02;;
75890;SDS011;64571;47.512;19.054;2024-03-23T01:28:03;25.00;;;12.47;;
75890;SDS011;64571;47.512;19.054;2024-03-23T01:31:05;28.48;;;13.35;;
75890;SDS011;64571;47.512;19.054;2024-03-23T01:34:07;31.70;;;16.20;;
75890;SDS011;64571;47.512;19.054;2024-03-23T01:37:11;32.55;;;15.80;;
75890;SDS011;64571;47.512;19.054;2024-03-23T01:40:13;37.65;;;18.20;;
75890;SDS011;64571;47.512;19.054;2024-03-23T01:43:14;32.53;;;17.03;;
75890;SDS011;64571;47.512;19.054;2024-03-23T01:46:16;38.80;;;18.87;;
75890;SDS011;64571;47.512;19.054;2024-03-23T01:49:18;42.00;;;21.35;;
75890;SDS011;64571;47.512;19.054;2024-03-23T01:52:20;37.58;;;20.70;;
75890;SDS011;64571;47.512;19.054;2024-03-23T01:55:21;42.78;;;21.98;;
75890;SDS011;64571;47.512;19.054;2024-03-23T01:58:23;41.80;;;21.23;;
75890;SDS011;64571;47.512;19.054;2024-03-23T02:01:24;43.08;;;21.62;;
75890;SDS011;64571;47.512;19.054;2024-03-23T02:04:26;44.65;;;22.25;;
75890;SDS011;64571;47.512;19.054;2024-03-23T02:07:28;44.35;;;21.73;;
75890;SDS011;64571;47.512;19.054;2024-03-23T02:10:30;38.05;;;20.70;;
75890;SDS011;64571;47.512;19.054;2024-03-23T02:13:32;42.37;;;20.77;;
75890;SDS011;64571;47.512;19.054;2024-03-23T02:16:34;44.40;;;20.48;;
75890;SDS011;64571;47.512;19.054;2024-03-23T02:19:35;37.08;;;21.02;;
75890;SDS011;64571;47.512;19.054;2024-03-23T02:22:37;42.55;;;21.55;;
75890;SDS011;64571;47.512;19.054;2024-03-23T02:25:39;39.95;;;21.17;;
75890;SDS011;64571;47.512;19.054;2024-03-23T02:28:41;40.13;;;21.17;;
75890;SDS011;64571;47.512;19.054;2024-03-23T02:31:42;39.13;;;19.87;;
75890;SDS011;64571;47.512;19.054;2024-03-23T02:34:44;45.55;;;22.65;;
75890;SDS011;64571;47.512;19.054;2024-03-23T02:37:46;39.65;;;20.62;;
75890;SDS011;64571;47.512;19.054;2024-03-23T02:40:51;43.03;;;21.30;;
75890;SDS011;64571;47.512;19.054;2024-03-23T02:43:53;44.07;;;20.50;;
75890;SDS011;64571;47.512;19.054;2024-03-23T02:46:54;41.90;;;20.88;;
75890;SDS011;64571;47.512;19.054;2024-03-23T02:49:56;42.22;;;21.08;;
75890;SDS011;64571;47.512;19.054;2024-03-23T02:52:58;38.83;;;20.48;;
75890;SDS011;64571;47.512;19.054;2024-03-23T02:55:59;46.22;;;21.00;;
75890;SDS011;64571;47.512;19.054;2024-03-23T02:59:01;39.00;;;20.63;;
75890;SDS011;64571;47.512;19.054;2024-03-23T03:02:02;39.60;;;20.17;;
75890;SDS011;64571;47.512;19.054;2024-03-23T03:05:06;39.42;;;21.37;;
75890;SDS011;64571;47.512;19.054;2024-03-23T03:08:07;39.97;;;20.98;;
75890;SDS011;64571;47.512;19.054;2024-03-23T03:11:12;40.72;;;21.83;;
75890;SDS011;64571;47.512;19.054;2024-03-23T03:14:13;41.20;;;19.70;;
75890;SDS011;64571;47.512;19.054;2024-03-23T03:17:15;37.50;;;20.37;;
75890;SDS011;64571;47.512;19.054;2024-03-23T03:20:17;37.88;;;21.05;;
75890;SDS011;64571;47.512;19.054;2024-03-23T03:23:19;37.13;;;20.48;;
75890;SDS011;64571;47.512;19.054;2024-03-23T03:26:20;44.47;;;21.62;;
75890;SDS011;64571;47.512;19.054;2024-03-23T03:29:22;41.03;;;20.00;;
75890;SDS011;64571;47.512;19.054;2024-03-23T03:32:23;40.33;;;21.23;;
75890;SDS011;64571;47.512;19.054;2024-03-23T03:35:25;39.17;;;21.70;;
75890;SDS011;64571;47.512;19.054;2024-03-23T03:38:27;39.53;;;21.90;;
75890;SDS011;64571;47.512;19.054;2024-03-23T03:41:28;41.13;;;22.02;;
75890;SDS011;64571;47.512;19.054;2024-03-23T03:44:30;40.23;;;22.30;;
75890;SDS011;64571;47.512;19.054;2024-03-23T03:47:32;46.55;;;21.87;;
75890;SDS011;64571;47.512;19.054;2024-03-23T03:50:33;41.90;;;22.37;;
75890;SDS011;64571;47.512;19.054;2024-03-23T03:53:35;46.47;;;21.20;;
75890;SDS011;64571;47.512;19.054;2024-03-23T03:56:37;38.35;;;20.42;;
75890;SDS011;64571;47.512;19.054;2024-03-23T03:59:39;41.27;;;19.97;;
75890;SDS011;64571;47.512;19.054;2024-03-23T04:02:40;39.42;;;20.42;;
75890;SDS011;64571;47.512;19.054;2024-03-23T04:05:42;44.25;;;21.12;;
75890;SDS011;64571;47.512;19.054;2024-03-23T04:08:44;37.85;;;20.50;;
75890;SDS011;64571;47.512;19.054;2024-03-23T04:11:46;37.88;;;19.45;;
75890;SDS011;64571;47.512;19.054;2024-03-23T04:14:51;37.27;;;20.13;;
75890;SDS011;64571;47.512;19.054;2024-03-23T04:17:53;47.90;;;20.98;;
75890;SDS011;64571;47.512;19.054;2024-03-23T04:20:54;37.42;;;20.20;;
75890;SDS011;64571;47.512;19.054;2024-03-23T04:23:56;37.40;;;19.58;;
75890;SDS011;64571;47.512;19.054;2024-03-23T04:26:57;45.25;;;20.98;;
75890;SDS011;64571;47.512;19.054;2024-03-23T04:29:59;36.57;;;19.80;;
75890;SDS011;64571;47.512;19.054;2024-03-23T04:33:02;44.15;;;20.95;;
75890;SDS011;64571;47.512;19.054;2024-03-23T04:36:04;39.63;;;20.58;;
75890;SDS011;64571;47.512;19.054;2024-03-23T04:39:06;41.37;;;19.90;;
75890;SDS011;64571;47.512;19.054;2024-03-23T04:42:10;36.80;;;19.67;;
75890;SDS011;64571;47.512;19.054;2024-03-23T04:45:11;40.27;;;19.37;;
75890;SDS011;64571;47.512;19.054;2024-03-23T04:48:13;59.42;;;21.23;;
75890;SDS011;64571;47.512;19.054;2024-03-23T04:51:21;47.83;;;21.35;;
75890;SDS011;64571;47.512;19.054;2024-03-23T04:54:23;38.92;;;20.37;;
75890;SDS011;64571;47.512;19.054;2024-03-23T04:57:25;39.10;;;20.95;;
75890;SDS011;64571;47.512;19.054;2024-03-23T05:00:31;40.83;;;19.70;;
75890;SDS011;64571;47.512;19.054;2024-03-23T05:03:32;35.55;;;18.77;;
75890;SDS011;64571;47.512;19.054;2024-03-23T05:06:34;44.15;;;20.83;;
75890;SDS011;64571;47.512;19.054;2024-03-23T05:09:36;35.17;;;18.30;;
75890;SDS011;64571;47.512;19.054;2024-03-23T05:12:37;38.88;;;20.48;;
75890;SDS011;64571;47.512;19.054;2024-03-23T05:15:39;34.73;;;19.50;;
75890;SDS011;64571;47.512;19.054;2024-03-23T05:18:40;38.08;;;20.05;;
75890;SDS011;64571;47.512;19.054;2024-03-23T05:21:42;39.15;;;19.98;;
75890;SDS011;64571;47.512;19.054;2024-03-23T05:24:44;36.92;;;18.92;;
75890;SDS011;64571;47.512;19.054;2024-03-23T05:27:46;39.10;;;19.30;;
75890;SDS011;64571;47.512;19.054;2024-03-23T05:30:52;36.17;;;17.93;;
75890;SDS011;64571;47.512;19.054;2024-03-23T05:33:54;31.25;;;16.75;;
75890;SDS011;64571;47.512;19.054;2024-03-23T05:36:56;31.70;;;18.30;;
75890;SDS011;64571;47.512;19.054;2024-03-23T05:39:57;35.88;;;18.42;;
75890;SDS011;64571;47.512;19.054;2024-03-23T05:42:59;33.72;;;17.15;;
75890;SDS011;64571;47.512;19.054;2024-03-23T05:46:00;33.47;;;18.23;;
75890;SDS011;64571;47.512;19.054;2024-03-23T05:49:09;38.03;;;18.50;;
75890;SDS011;64571;47.512;19.054;2024-03-23T05:52:10;37.95;;;17.17;;
75890;SDS011;64571;47.512;19.054;2024-03-23T05:55:12;37.55;;;18.10;;
75890;SDS011;64571;47.512;19.054;2024-03-23T05:58:14;30.48;;;17.70;;
75890;SDS011;64571;47.512;19.054;2024-03-23T06:01:17;30.37;;;16.10;;
75890;SDS011;64571;47.512;19.054;2024-03-23T06:04:19;34.90;;;16.87;;
75890;SDS011;64571;47.512;19.054;2024-03-23T06:07:20;30.58;;;16.67;;
75890;SDS011;64571;47.512;19.054;2024-03-23T06:10:22;31.23;;;17.12;;
75890;SDS011;64571;47.512;19.054;2024-03-23T06:13:24;32.03;;;16.80;;
75890;SDS011;64571;47.512;19.054;2024-03-23T06:16:31;32.73;;;15.97;;
75890;SDS011;64571;47.512;19.054;2024-03-23T06:19:32;33.58;;;16.55;;
75890;SDS011;64571;47.512;19.054;2024-03-23T06:22:34;30.25;;;15.98;;
75890;SDS011;64571;47.512;19.054;2024-03-23T06:25:35;29.17;;;15.35;;
75890;SDS011;64571;47.512;19.054;2024-03-23T06:28:37;30.30;;;17.17;;
75890;SDS011;64571;47.512;19.054;2024-03-23T06:31:38;32.83;;;17.20;;
75890;SDS011;64571;47.512;19.054;2024-03-23T06:34:43;29.67;;;15.63;;
75890;SDS011;64571;47.512;19.054;2024-03-23T06:37:45;32.17;;;16.10;;
75890;SDS011;64571;47.512;19.054;2024-03-23T06:40:47;32.08;;;16.92;;
75890;SDS011;64571;47.512;19.054;2024-03-23T06:43:51;33.50;;;17.27;;
75890;SDS011;64571;47.512;19.054;2024-03-23T06:46:53;32.63;;;17.83;;
75890;SDS011;64571;47.512;19.054;2024-03-23T06:49:54;33.25;;;15.98;;
75890;SDS011;64571;47.512;19.054;2024-03-23T06:52:56;33.90;;;17.35;;
75890;SDS011;64571;47.512;19.054;2024-03-23T06:55:58;32.28;;;17.70;;
75890;SDS011;64571;47.512;19.054;2024-03-23T06:59:00;32.03;;;17.58;;
75890;SDS011;64571;47.512;19.054;2024-03-23T07:02:02;28.83;;;15.67;;
75890;SDS011;64571;47.512;19.054;2024-03-23T07:05:04;32.90;;;16.10;;
75890;SDS011;64571;47.512;19.054;2024-03-23T07:08:05;33.00;;;18.27;;
75890;SDS011;64571;47.512;19.054;2024-03-23T07:11:07;33.20;;;16.25;;
75890;SDS011;64571;47.512;19.054;2024-03-23T07:14:09;31.87;;;17.33;;
75890;SDS011;64571;47.512;19.054;2024-03-23T07:17:10;29.87;;;16.13;;
75890;SDS011;64571;47.512;19.054;2024-03-23T07:20:12;34.78;;;18.50;;
75890;SDS011;64571;47.512;19.054;2024-03-23T07:23:14;32.10;;;17.37;;
75890;SDS011;64571;47.512;19.054;2024-03-23T07:26:15;32.65;;;17.62;;
75890;SDS011;64571;47.512;19.054;2024-03-23T07:29:17;31.10;;;18.55;;
75890;SDS011;64571;47.512;19.054;2024-03-23T07:32:19;32.27;;;16.70;;
75890;SDS011;64571;47.512;19.054;2024-03-23T07:35:20;31.20;;;17.67;;
75890;SDS011;64571;47.512;19.054;2024-03-23T07:38:22;31.05;;;17.75;;
75890;SDS011;64571;47.512;19.054;2024-03-23T07:41:24;34.70;;;18.37;;
75890;SDS011;64571;47.512;19.054;2024-03-23T07:44:26;32.45;;;18.60;;
75890;SDS011;64571;47.512;19.054;2024-03-23T07:47:28;37.37;;;18.90;;
75890;SDS011;64571;47.512;19.054;2024-03-23T07:50:29;31.40;;;17.95;;
75890;SDS011;64571;47.512;19.054;2024-03-23T07:53:31;31.85;;;18.80;;
75890;SDS011;64571;47.512;19.054;2024-03-23T07:56:33;32.90;;;18.73;;
75890;SDS011;64571;47.512;19.054;2024-03-23T07:59:35;32.83;;;18.70;;
75890;SDS011;64571;47.512;19.054;2024-03-23T08:02:36;30.60;;;17.13;;
75890;SDS011;64571;47.512;19.054;2024-03-23T08:05:38;33.35;;;18.05;;
75890;SDS011;64571;47.512;19.054;2024-03-23T08:08:40;31.75;;;17.83;;
75890;SDS011;64571;47.512;19.054;2024-03-23T08:11:43;36.08;;;18.08;;
75890;SDS011;64571;47.512;19.054;2024-03-23T08:14:48;33.47;;;17.73;;
75890;SDS011;64571;47.512;19.054;2024-03-23T08:17:50;33.37;;;17.73;;
75890;SDS011;64571;47.512;19.054;2024-03-23T08:23:59;29.55;;;16.17;;
75890;SDS011;64571;47.512;19.054;2024-03-23T08:27:00;30.27;;;15.70;;
75890;SDS011;64571;47.512;19.054;2024-03-23T08:30:02;28.33;;;16.37;;
75890;SDS011;64571;47.512;19.054;2024-03-23T08:33:04;30.27;;;15.67;;
75890;SDS011;64571;47.512;19.054;2024-03-23T08:36:07;24.87;;;14.73;;
75890;SDS011;64571;47.512;19.054;2024-03-23T08:39:09;25.65;;;14.68;;
75890;SDS011;64571;47.512;19.054;2024-03-23T08:42:11;24.95;;;13.70;;
75890;SDS011;64571;47.512;19.054;2024-03-23T08:45:12;24.55;;;14.25;;
75890;SDS011;64571;47.512;19.054;2024-03-23T08:48:14;29.63;;;13.97;;
75890;SDS011;64571;47.512;19.054;2024-03-23T08:51:16;26.35;;;14.55;;
75890;SDS011;64571;47.512;19.054;2024-03-23T08:54:18;28.67;;;15.40;;
75890;SDS011;64571;47.512;19.054;2024-03-23T08:57:21;23.85;;;13.73;;
75890;SDS011;64571;47.512;19.054;2024-03-23T09:00:24;24.92;;;14.68;;
75890;SDS011;64571;47.512;19.054;2024-03-23T09:03:25;24.83;;;14.20;;
75890;SDS011;64571;47.512;19.054;2024-03-23T09:06:27;26.58;;;14.98;;
75890;SDS011;64571;47.512;19.054;2024-03-23T09:09:28;21.85;;;14.15;;
75890;SDS011;64571;47.512;19.054;2024-03-23T09:12:30;25.17;;;13.20;;
75890;SDS011;64571;47.512;19.054;2024-03-23T09:15:33;25.70;;;13.75;;
75890;SDS011;64571;47.512;19.054;2024-03-23T09:18:36;24.90;;;12.40;;
75890;SDS011;64571;47.512;19.054;2024-03-23T09:21:38;21.17;;;12.93;;
75890;SDS011;64571;47.512;19.054;2024-03-23T09:24:39;20.55;;;13.35;;
75890;SDS011;64571;47.512;19.054;2024-03-23T09:27:41;24.98;;;12.32;;
75890;SDS011;64571;47.512;19.054;2024-03-23T09:30:43;22.87;;;12.80;;
75890;SDS011;64571;47.512;19.054;2024-03-23T09:33:44;20.57;;;12.57;;
75890;SDS011;64571;47.512;19.054;2024-03-23T09:36:46;20.25;;;11.80;;
75890;SDS011;64571;47.512;19.054;2024-03-23T09:39:48;18.77;;;11.73;;
75890;SDS011;64571;47.512;19.054;2024-03-23T09:42:50;19.27;;;11.43;;
75890;SDS011;64571;47.512;19.054;2024-03-23T09:45:52;19.08;;;11.32;;
75890;SDS011;64571;47.512;19.054;2024-03-23T09:48:55;22.37;;;11.50;;
75890;SDS011;64571;47.512;19.054;2024-03-23T09:51:57;22.17;;;11.43;;
75890;SDS011;64571;47.512;19.054;2024-03-23T09:54:59;17.37;;;11.07;;
75890;SDS011;64571;47.512;19.054;2024-03-23T09:58:01;18.52;;;10.70;;
75890;SDS011;64571;47.512;19.054;2024-03-23T10:01:03;18.83;;;11.25;;
75890;SDS011;64571;47.512;19.054;2024-03-23T10:04:05;19.13;;;11.00;;
75890;SDS011;64571;47.512;19.054;2024-03-23T10:07:13;17.17;;;10.27;;
75890;SDS011;64571;47.512;19.054;2024-03-23T10:10:16;15.40;;;8.70;;
75890;SDS011;64571;47.512;19.054;2024-03-23T10:13:28;15.57;;;8.25;;
75890;SDS011;64571;47.512;19.054;2024-03-23T10:16:35;15.95;;;7.10;;
75890;SDS011;64571;47.512;19.054;2024-03-23T10:19:37;16.87;;;6.70;;
75890;SDS011;64571;47.512;19.054;2024-03-23T10:22:39;13.10;;;7.35;;
75890;SDS011;64571;47.512;19.054;2024-03-23T10:25:40;11.00;;;6.75;;
75890;SDS011;64571;47.512;19.054;2024-03-23T10:29:01;11.35;;;6.47;;
75890;SDS011;64571;47.512;19.054;2024-03-23T10:32:09;12.18;;;6.80;;
75890;SDS011;64571;47.512;19.054;2024-03-23T10:35:18;15.33;;;6.33;;
75890;SDS011;64571;47.512;19.054;2024-03-23T10:38:22;14.38;;;6.60;;
75890;SDS011;64571;47.512;19.054;2024-03-23T10:41:27;18.08;;;6.70;;
75890;SDS011;64571;47.512;19.054;2024-03-23T10:44:31;14.45;;;6.43;;
75890;SDS011;64571;47.512;19.054;2024-03-23T10:47:34;13.75;;;6.40;;
75890;SDS011;64571;47.512;19.054;2024-03-23T10:50:37;12.73;;;5.63;;
75890;SDS011;64571;47.512;19.054;2024-03-23T10:53:39;13.90;;;6.18;;
75890;SDS011;64571;47.512;19.054;2024-03-23T10:56:40;16.17;;;7.03;;
75890;SDS011;64571;47.512;19.054;2024-03-23T10:59:42;12.60;;;5.43;;
75890;SDS011;64571;47.512;19.054;2024-03-23T11:02:47;15.82;;;6.72;;
75890;SDS011;64571;47.512;19.054;2024-03-23T11:05:49;22.77;;;6.77;;
75890;SDS011;64571;47.512;19.054;2024-03-23T11:08:51;11.48;;;5.15;;
75890;SDS011;64571;47.512;19.054;2024-03-23T11:11:53;11.00;;;5.47;;
75890;SDS011;64571;47.512;19.054;2024-03-23T11:18:05;10.25;;;5.30;;
75890;SDS011;64571;47.512;19.054;2024-03-23T11:24:52;12.25;;;4.07;;
75890;SDS011;64571;47.512;19.054;2024-03-23T11:27:55;10.63;;;5.12;;
75890;SDS011;64571;47.512;19.054;2024-03-23T11:31:00;14.32;;;4.50;;
75890;SDS011;64571;47.512;19.054;2024-03-23T11:34:05;12.25;;;4.93;;
75890;SDS011;64571;47.512;19.054;2024-03-23T11:37:07;8.40;;;4.87;;
75890;SDS011;64571;47.512;19.054;2024-03-23T11:40:16;7.97;;;4.12;;
75890;SDS011;64571;47.512;19.054;2024-03-23T11:43:33;9.45;;;4.22;;
75890;SDS011;64571;47.512;19.054;2024-03-23T11:46:34;10.32;;;3.78;;
75890;SDS011;64571;47.512;19.054;2024-03-23T11:49:38;9.82;;;4.82;;
75890;SDS011;64571;47.512;19.054;2024-03-23T11:52:42;9.20;;;4.30;;
75890;SDS011;64571;47.512;19.054;2024-03-23T11:58:45;6.75;;;3.62;;
75890;SDS011;64571;47.512;19.054;2024-03-23T12:01:51;12.65;;;4.80;;
75890;SDS011;64571;47.512;19.054;2024-03-23T12:04:53;9.52;;;4.62;;
75890;SDS011;64571;47.512;19.054;2024-03-23T12:07:54;11.43;;;4.20;;
75890;SDS011;64571;47.512;19.054;2024-03-23T12:11:06;9.48;;;4.43;;
75890;SDS011;64571;47.512;19.054;2024-03-23T12:14:14;11.52;;;4.10;;
75890;SDS011;64571;47.512;19.054;2024-03-23T12:17:16;9.45;;;3.97;;
75890;SDS011;64571;47.512;19.054;2024-03-23T12:20:17;9.80;;;3.95;;
75890;SDS011;64571;47.512;19.054;2024-03-23T12:23:19;13.03;;;4.27;;
75890;SDS011;64571;47.512;19.054;2024-03-23T12:26:22;12.13;;;3.78;;
75890;SDS011;64571;47.512;19.054;2024-03-23T12:29:26;10.55;;;3.90;;
75890;SDS011;64571;47.512;19.054;2024-03-23T12:32:32;9.43;;;3.30;;
75890;SDS011;64571;47.512;19.054;2024-03-23T12:35:34;8.93;;;3.62;;
75890;SDS011;64571;47.512;19.054;2024-03-23T12:38:36;8.27;;;2.97;;
75890;SDS011;64571;47.512;19.054;2024-03-23T12:41:37;10.30;;;3.50;;
75890;SDS011;64571;47.512;19.054;2024-03-23T12:44:39;11.98;;;3.42;;
75890;SDS011;64571;47.512;19.054;2024-03-23T12:47:41;7.80;;;3.50;;
75890;SDS011;64571;47.512;19.054;2024-03-23T12:50:42;7.35;;;3.33;;
75890;SDS011;64571;47.512;19.054;2024-03-23T12:53:44;6.20;;;3.20;;
75890;SDS011;64571;47.512;19.054;2024-03-23T12:56:46;7.78;;;2.85;;
75890;SDS011;64571;47.512;19.054;2024-03-23T12:59:47;7.60;;;3.20;;
75890;SDS011;64571;47.512;19.054;2024-03-23T13:02:51;10.20;;;3.20;;
75890;SDS011;64571;47.512;19.054;2024-03-23T13:05:55;13.02;;;3.62;;
75890;SDS011;64571;47.512;19.054;2024-03-23T13:08:57;10.37;;;3.30;;
75890;SDS011;64571;47.512;19.054;2024-03-23T13:11:58;8.27;;;3.25;;
75890;SDS011;64571;47.512;19.054;2024-03-23T13:15:00;7.03;;;2.90;;
75890;SDS011;64571;47.512;19.054;2024-03-23T13:18:07;6.30;;;2.80;;
75890;SDS011;64571;47.512;19.054;2024-03-23T13:21:09;12.43;;;2.90;;
75890;SDS011;64571;47.512;19.054;2024-03-23T13:24:11;10.40;;;3.10;;
75890;SDS011;64571;47.512;19.054;2024-03-23T13:27:12;6.90;;;2.40;;
75890;SDS011;64571;47.512;19.054;2024-03-23T13:30:14;12.05;;;2.95;;
75890;SDS011;64571;47.512;19.054;2024-03-23T13:33:16;8.95;;;2.80;;
75890;SDS011;64571;47.512;19.054;2024-03-23T13:36:17;6.28;;;3.22;;
75890;SDS011;64571;47.512;19.054;2024-03-23T13:39:21;8.10;;;2.90;;
75890;SDS011;64571;47.512;19.054;2024-03-23T13:42:23;9.98;;;2.75;;
75890;SDS011;64571;47.512;19.054;2024-03-23T13:45:27;8.98;;;2.87;;
75890;SDS011;64571;47.512;19.054;2024-03-23T13:48:28;7.37;;;2.58;;
75890;SDS011;64571;47.512;19.054;2024-03-23T13:51:32;8.60;;;3.30;;
75890;SDS011;64571;47.512;19.054;2024-03-23T13:54:34;6.97;;;2.23;;
75890;SDS011;64571;47.512;19.054;2024-03-23T13:57:36;6.57;;;2.50;;
75890;SDS011;64571;47.512;19.054;2024-03-23T14:00:38;5.87;;;2.60;;
75890;SDS011;64571;47.512;19.054;2024-03-23T14:03:39;6.40;;;2.72;;
75890;SDS011;64571;47.512;19.054;2024-03-23T14:06:42;9.23;;;2.90;;
75890;SDS011;64571;47.512;19.054;2024-03-23T14:09:46;7.83;;;2.80;;
75890;SDS011;64571;47.512;19.054;2024-03-23T14:12:50;10.00;;;3.05;;
75890;SDS011;64571;47.512;19.054;2024-03-23T14:15:52;7.22;;;3.08;;
75890;SDS011;64571;47.512;19.054;2024-03-23T14:18:54;7.47;;;2.97;;
75890;SDS011;64571;47.512;19.054;2024-03-23T14:21:56;6.87;;;3.10;;
75890;SDS011;64571;47.512;19.054;2024-03-23T14:24:57;6.40;;;2.90;;
75890;SDS011;64571;47.512;19.054;2024-03-23T14:28:00;6.12;;;3.10;;
75890;SDS011;64571;47.512;19.054;2024-03-23T14:31:01;6.22;;;2.92;;
75890;SDS011;64571;47.512;19.054;2024-03-23T14:34:04;5.80;;;2.72;;
75890;SDS011;64571;47.512;19.054;2024-03-23T14:37:06;7.25;;;3.12;;
75890;SDS011;64571;47.512;19.054;2024-03-23T14:40:07;5.80;;;2.60;;
75890;SDS011;64571;47.512;19.054;2024-03-23T14:43:13;6.72;;;2.50;;
75890;SDS011;64571;47.512;19.054;2024-03-23T14:46:19;5.97;;;2.50;;
75890;SDS011;64571;47.512;19.054;2024-03-23T14:49:21;4.75;;;2.20;;
75890;SDS011;64571;47.512;19.054;2024-03-23T14:52:22;6.95;;;3.12;;
75890;SDS011;64571;47.512;19.054;2024-03-23T14:55:24;8.40;;;2.93;;
75890;SDS011;64571;47.512;19.054;2024-03-23T14:58:25;12.05;;;2.95;;
75890;SDS011;64571;47.512;19.054;2024-03-23T15:01:27;7.75;;;2.78;;
75890;SDS011;64571;47.512;19.054;2024-03-23T15:04:29;8.23;;;3.08;;
75890;SDS011;64571;47.512;19.054;2024-03-23T15:07:33;8.00;;;3.33;;
75890;SDS011;64571;47.512;19.054;2024-03-23T15:10:35;7.63;;;3.10;;
75890;SDS011;64571;47.512;19.054;2024-03-23T15:13:36;7.37;;;3.62;;
75890;SDS011;64571;47.512;19.054;2024-03-23T15:16:39;6.53;;;3.05;;
75890;SDS011;64571;47.512;19.054;2024-03-23T15:19:40;8.10;;;3.70;;
75890;SDS011;64571;47.512;19.054;2024-03-23T15:22:46;8.63;;;3.17;;
75890;SDS011;64571;47.512;19.054;2024-03-23T15:26:21;6.87;;;3.20;;
75890;SDS011;64571;47.512;19.054;2024-03-23T15:29:17;7.78;;;3.30;;
75890;SDS011;64571;47.512;19.054;2024-03-23T15:32:18;7.40;;;3.33;;
75890;SDS011;64571;47.512;19.054;2024-03-23T15:35:20;7.90;;;3.40;;
75890;SDS011;64571;47.512;19.054;2024-03-23T15:38:26;9.32;;;3.42;;
75890;SDS011;64571;47.512;19.054;2024-03-23T15:41:28;9.03;;;3.80;;
75890;SDS011;64571;47.512;19.054;2024-03-23T15:44:29;8.75;;;3.60;;
75890;SDS011;64571;47.512;19.054;2024-03-23T15:47:31;10.15;;;3.97;;
75890;SDS011;64571;47.512;19.054;2024-03-23T15:50:33;9.40;;;3.85;;
75890;SDS011;64571;47.512;19.054;2024-03-23T15:53:34;8.05;;;3.33;;
75890;SDS011;64571;47.512;19.054;2024-03-23T15:56:36;9.17;;;3.43;;
75890;SDS011;64571;47.512;19.054;2024-03-23T15:59:41;7.53;;;3.50;;
75890;SDS011;64571;47.512;19.054;2024-03-23T16:02:42;7.20;;;3.53;;
75890;SDS011;64571;47.512;19.054;2024-03-23T16:05:49;8.60;;;3.80;;
75890;SDS011;64571;47.512;19.054;2024-03-23T16:08:54;11.12;;;4.40;;
75890;SDS011;64571;47.512;19.054;2024-03-23T16:11:56;7.80;;;3.80;;
75890;SDS011;64571;47.512;19.054;2024-03-23T16:14:57;16.85;;;4.28;;
75890;SDS011;64571;47.512;19.054;2024-03-23T16:17:59;9.02;;;3.83;;
75890;SDS011;64571;47.512;19.054;2024-03-23T16:21:04;9.50;;;3.70;;
75890;SDS011;64571;47.512;19.054;2024-03-23T16:24:07;7.53;;;3.90;;
75890;SDS011;64571;47.512;19.054;2024-03-23T16:27:09;9.77;;;3.87;;
75890;SDS011;64571;47.512;19.054;2024-03-23T16:30:11;8.75;;;3.37;;
75890;SDS011;64571;47.512;19.054;2024-03-23T16:33:13;9.55;;;4.00;;
75890;SDS011;64571;47.512;19.054;2024-03-23T16:36:14;7.43;;;3.60;;
75890;SDS011;64571;47.512;19.054;2024-03-23T16:39:18;10.90;;;4.12;;
75890;SDS011;64571;47.512;19.054;2024-03-23T16:42:20;8.67;;;3.80;;
75890;SDS011;64571;47.512;19.054;2024-03-23T16:45:22;8.82;;;4.22;;
75890;SDS011;64571;47.512;19.054;2024-03-23T16:48:24;9.50;;;4.10;;
75890;SDS011;64571;47.512;19.054;2024-03-23T16:51:26;9.75;;;3.87;;
75890;SDS011;64571;47.512;19.054;2024-03-23T16:54:28;9.95;;;4.22;;
75890;SDS011;64571;47.512;19.054;2024-03-23T16:57:29;9.20;;;4.57;;
75890;SDS011;64571;47.512;19.054;2024-03-23T17:00:31;10.00;;;4.22;;
75890;SDS011;64571;47.512;19.054;2024-03-23T17:03:34;8.02;;;4.40;;
75890;SDS011;64571;47.512;19.054;2024-03-23T17:06:37;8.32;;;2.37;;
75890;SDS011;64571;47.512;19.054;2024-03-23T17:09:46;10.23;;;2.03;;
75890;SDS011;64571;47.512;19.054;2024-03-23T17:12:49;10.27;;;1.20;;
75890;SDS011;64571;47.512;19.054;2024-03-23T17:15:50;6.65;;;1.42;;
75890;SDS011;64571;47.512;19.054;2024-03-23T17:18:52;9.55;;;1.65;;
75890;SDS011;64571;47.512;19.054;2024-03-23T17:21:54;7.80;;;0.95;;
75890;SDS011;64571;47.512;19.054;2024-03-23T17:24:56;8.50;;;1.17;;
75890;SDS011;64571;47.512;19.054;2024-03-23T17:27:57;8.10;;;1.07;;
75890;SDS011;64571;47.512;19.054;2024-03-23T17:30:59;3.78;;;1.17;;
75890;SDS011;64571;47.512;19.054;2024-03-23T17:34:01;3.72;;;0.70;;
75890;SDS011;64571;47.512;19.054;2024-03-23T17:37:03;3.67;;;0.90;;
75890;SDS011;64571;47.512;19.054;2024-03-23T17:40:04;8.77;;;1.20;;
75890;SDS011;64571;47.512;19.054;2024-03-23T17:43:09;6.30;;;0.90;;
75890;SDS011;64571;47.512;19.054;2024-03-23T17:46:10;4.70;;;1.15;;
75890;SDS011;64571;47.512;19.054;2024-03-23T17:49:12;3.75;;;0.90;;
75890;SDS011;64571;47.512;19.054;2024-03-23T17:52:13;3.85;;;1.00;;
75890;SDS011;64571;47.512;19.054;2024-03-23T17:55:15;3.45;;;0.80;;
75890;SDS011;64571;47.512;19.054;2024-03-23T17:58:17;3.57;;;0.80;;
75890;SDS011;64571;47.512;19.054;2024-03-23T18:01:19;5.03;;;0.80;;
75890;SDS011;64571;47.512;19.054;2024-03-23T18:04:22;5.93;;;1.10;;
75890;SDS011;64571;47.512;19.054;2024-03-23T18:07:24;3.65;;;1.10;;
75890;SDS011;64571;47.512;19.054;2024-03-23T18:10:26;5.85;;;1.75;;
75890;SDS011;64571;47.512;19.054;2024-03-23T18:13:28;3.90;;;1.03;;
75890;SDS011;64571;47.512;19.054;2024-03-23T18:16:30;5.43;;;1.00;;
75890;SDS011;64571;47.512;19.054;2024-03-23T18:19:32;5.22;;;0.90;;
75890;SDS011;64571;47.512;19.054;2024-03-23T18:22:34;5.62;;;0.88;;
75890;SDS011;64571;47.512;19.054;2024-03-23T18:25:36;4.18;;;0.80;;
75890;SDS011;64571;47.512;19.054;2024-03-23T18:28:38;4.07;;;0.67;;
75890;SDS011;64571;47.512;19.054;2024-03-23T18:31:39;6.37;;;1.15;;
75890;SDS011;64571;47.512;19.054;2024-03-23T18:34:41;3.90;;;0.82;;
75890;SDS011;64571;47.512;19.054;2024-03-23T18:37:44;3.00;;;0.70;;
75890;SDS011;64571;47.512;19.054;2024-03-23T18:40:46;5.15;;;0.80;;
75890;SDS011;64571;47.512;19.054;2024-03-23T18:43:49;3.80;;;0.90;;
75890;SDS011;64571;47.512;19.054;2024-03-23T18:46:54;5.28;;;0.80;;
75890;SDS011;64571;47.512;19.054;2024-03-23T18:49:56;5.70;;;1.52;;